createdAt,value
2019-05-16T00:04:18.720Z,4.50
2019-05-16T00:09:25.767Z,2.55
2019-05-16T00:14:32.849Z,2.47
2019-05-16T00:19:39.916Z,2.87
2019-05-16T00:24:48.778Z,2.27
2019-05-16T00:29:53.540Z,2.67
2019-05-16T00:35:00.594Z,2.17
2019-05-16T00:40:08.258Z,2.08
2019-05-16T00:45:14.423Z,2.40
2019-05-16T00:50:21.814Z,2.65
2019-05-16T00:55:28.882Z,2.31
2019-05-16T01:00:38.091Z,2.85
2019-05-16T01:05:42.758Z,2.62
2019-05-16T01:10:51.531Z,3.10
2019-05-16T01:15:58.013Z,2.53
2019-05-16T01:21:03.084Z,2.99
2019-05-16T01:26:10.230Z,2.48
2019-05-16T01:31:19.238Z,2.52
2019-05-16T01:36:36.152Z,3.24
2019-05-16T01:41:30.547Z,2.47
2019-05-16T01:46:39.114Z,2.98
2019-05-16T01:51:44.400Z,2.56
2019-05-16T01:56:51.507Z,2.61
2019-05-16T02:02:00.820Z,2.98
2019-05-16T02:07:05.242Z,2.63
2019-05-16T02:12:12.367Z,2.56
2019-05-16T02:17:19.416Z,2.80
2019-05-16T02:22:28.376Z,2.83
2019-05-16T02:27:33.099Z,2.82
2019-05-16T02:32:41.635Z,2.71
2019-05-16T02:37:46.920Z,2.88
2019-05-16T02:42:56.193Z,2.73
2019-05-16T02:48:01.473Z,2.67
2019-05-16T02:53:07.206Z,2.94
2019-05-16T02:58:14.075Z,2.78
2019-05-16T03:03:22.853Z,2.26
2019-05-16T03:08:32.155Z,2.59
2019-05-16T03:13:38.960Z,2.63
2019-05-16T03:18:46.009Z,2.33
2019-05-16T03:23:54.467Z,2.86
2019-05-16T03:29:01.542Z,2.80
2019-05-16T03:34:14.941Z,2.33
2019-05-16T03:39:15.305Z,2.59
2019-05-16T03:44:22.393Z,2.15
2019-05-16T03:49:31.235Z,2.25
2019-05-16T03:54:36.224Z,2.72
2019-05-16T03:59:43.278Z,2.36
2019-05-16T04:04:51.100Z,2.57
2019-05-16T04:09:56.928Z,2.94
2019-05-16T04:15:03.985Z,2.42
2019-05-16T04:20:11.929Z,2.09
2019-05-16T04:25:17.601Z,2.39
2019-05-16T04:30:24.650Z,2.39
2019-05-16T04:35:31.884Z,2.78
2019-05-16T04:40:42.121Z,2.87
2019-05-16T04:45:45.411Z,2.81
2019-05-16T04:50:52.756Z,2.61
2019-05-16T04:56:01.736Z,2.76
2019-05-16T05:01:06.251Z,2.76
2019-05-16T05:06:13.275Z,2.57
2019-05-16T05:11:21.492Z,2.48
2019-05-16T05:16:26.927Z,2.82
2019-05-16T05:21:33.962Z,2.48
2019-05-16T05:26:41.592Z,2.45
2019-05-16T05:31:47.605Z,2.99
2019-05-16T05:36:54.626Z,2.33
2019-05-16T05:42:01.691Z,3.85
2019-05-16T05:47:10.766Z,2.85
2019-05-16T05:52:15.416Z,2.50
2019-05-16T05:57:22.538Z,2.89
2019-05-16T06:02:31.007Z,3.01
2019-05-16T06:07:36.179Z,2.49
2019-05-16T06:12:43.465Z,2.74
2019-05-16T06:17:51.024Z,2.47
2019-05-16T06:22:57.197Z,2.58
2019-05-16T06:28:04.250Z,3.15
2019-05-16T06:33:11.282Z,2.61
2019-05-16T06:38:20.631Z,2.50
2019-05-16T06:43:25.048Z,3.66
2019-05-16T06:48:32.084Z,2.71
2019-05-16T06:53:40.443Z,2.03
2019-05-16T06:58:48.467Z,2.87
2019-05-16T07:03:52.393Z,2.42
2019-05-16T07:09:01.032Z,2.37
2019-05-16T07:14:06.105Z,2.61
2019-05-16T07:19:13.215Z,2.99
2019-05-16T07:24:20.285Z,2.60
2019-05-16T07:29:27.372Z,2.20
2019-05-16T07:34:34.559Z,2.61
2019-05-16T07:39:42.005Z,2.65
2019-05-16T07:44:50.602Z,2.67
2019-05-16T07:49:55.308Z,2.87
2019-05-16T07:55:04.076Z,4.46
2019-05-16T08:00:09.683Z,3.04
2019-05-16T08:05:15.747Z,3.52
2019-05-16T08:10:36.857Z,2.78
2019-05-16T08:15:30.348Z,3.90
2019-05-16T08:20:36.246Z,3.16
2019-05-16T08:25:43.276Z,3.94
2019-05-16T08:30:52.917Z,2.70
2019-05-16T08:35:56.986Z,2.65
2019-05-16T08:46:12.365Z,1.88
2019-05-16T08:51:17.238Z,2.16
2019-05-16T08:56:24.366Z,3.45
2019-05-16T09:01:35.041Z,2.62
2019-05-16T09:06:42.210Z,2.48
2019-05-16T09:10:40.566Z,2.33
2019-05-16T09:11:45.810Z,2.96
2019-05-16T09:16:51.142Z,4.29
2019-05-16T09:21:58.229Z,3.47
2019-05-16T09:27:11.478Z,3.26
2019-05-16T09:32:16.904Z,3.25
2019-05-16T09:37:18.419Z,5.71
2019-05-16T09:42:31.949Z,2.95
2019-05-16T09:47:28.993Z,3.02
2019-05-16T09:52:36.428Z,4.12
2019-05-16T09:57:43.129Z,2.55
2019-05-16T10:02:50.203Z,2.44
2019-05-16T10:07:57.519Z,2.95
2019-05-16T10:13:06.658Z,2.73
2019-05-16T10:18:11.020Z,3.26
2019-05-16T10:23:18.233Z,2.83
2019-05-16T10:28:27.565Z,3.65
2019-05-16T10:33:31.773Z,3.22
2019-05-16T10:38:38.832Z,2.91
2019-05-16T10:43:47.443Z,3.15
2019-05-16T10:48:53.819Z,3.12
2019-05-16T10:54:09.028Z,3.74
2019-05-16T10:59:46.839Z,3.58
2019-05-16T11:04:26.267Z,3.13
2019-05-16T11:09:20.753Z,2.89
2019-05-16T11:14:28.219Z,2.93
2019-05-16T11:19:37.092Z,3.12
2019-05-16T11:24:41.499Z,3.23
2019-05-16T11:29:48.538Z,3.37
2019-05-16T11:34:55.604Z,3.03
2019-05-16T11:40:02.716Z,4.96
2019-05-16T11:45:10.557Z,3.36
2019-05-16T11:50:17.569Z,4.61
2019-05-16T11:55:23.313Z,3.59
2019-05-16T12:00:30.646Z,3.03
2019-05-16T12:05:37.499Z,3.29
2019-05-16T12:10:46.932Z,3.63
2019-05-16T12:15:52.931Z,3.90
2019-05-16T12:21:00.119Z,3.96
2019-05-16T12:26:07.763Z,3.43
2019-05-16T12:31:17.433Z,3.56
2019-05-16T12:36:21.997Z,3.48
2019-05-16T12:41:29.096Z,4.40
2019-05-16T12:46:36.568Z,4.00
2019-05-16T12:51:42.765Z,2.94
2019-05-16T12:56:49.822Z,3.50
2019-05-16T13:01:57.680Z,3.54
2019-05-16T13:07:03.553Z,3.38
2019-05-16T13:12:10.591Z,3.89
2019-05-16T13:17:17.643Z,4.11
2019-05-16T13:22:27.361Z,4.33
2019-05-16T13:27:31.328Z,5.12
2019-05-16T13:32:38.385Z,5.71
2019-05-16T13:37:47.734Z,4.71
2019-05-16T13:42:52.101Z,4.28
2019-05-16T13:47:59.190Z,4.59
2019-05-16T13:53:07.723Z,4.24
2019-05-16T13:58:12.939Z,4.35
2019-05-16T14:03:20.060Z,4.53
2019-05-16T14:08:27.167Z,5.06
2019-05-16T14:13:34.216Z,4.01
2019-05-16T14:18:41.265Z,4.48
2019-05-16T14:23:53.213Z,4.63
2019-05-16T14:28:57.612Z,5.14
2019-05-16T14:34:03.116Z,3.29
2019-05-16T14:39:10.947Z,3.13
2019-05-16T14:44:18.682Z,3.13
2019-05-16T14:49:28.733Z,3.34
2019-05-16T14:54:37.797Z,3.45
2019-05-16T14:59:43.116Z,3.30
2019-05-16T15:04:50.814Z,2.81
2019-05-16T15:09:58.332Z,3.55
2019-05-16T15:15:17.171Z,3.10
2019-05-16T15:20:12.525Z,3.41
2019-05-16T15:25:20.133Z,4.22
2019-05-16T15:30:27.577Z,3.32
2019-05-16T15:35:37.793Z,4.09
2019-05-16T15:40:41.778Z,5.03
2019-05-16T15:45:52.768Z,4.63
2019-05-16T15:50:59.985Z,4.62
2019-05-16T15:56:09.646Z,5.69
2019-05-16T16:01:12.750Z,7.96
2019-05-16T16:06:20.296Z,5.66
2019-05-16T16:11:28.140Z,6.59
2019-05-16T16:16:35.789Z,5.92
2019-05-16T16:21:43.212Z,5.67
2019-05-16T16:26:51.398Z,5.79
2019-05-16T16:31:58.539Z,5.89
2019-05-16T16:37:07.513Z,5.47
2019-05-16T16:42:15.252Z,5.87
2019-05-16T16:47:23.019Z,5.51
2019-05-16T16:52:31.844Z,5.02
2019-05-16T16:57:41.318Z,5.52
2019-05-16T17:03:02.246Z,4.69
2019-05-16T17:07:57.224Z,5.99
2019-05-16T17:13:06.675Z,5.36
2019-05-16T17:18:12.013Z,5.68
2019-05-16T17:23:19.629Z,5.31
2019-05-16T17:28:27.099Z,5.58
2019-05-16T17:33:37.689Z,5.33
2019-05-16T17:38:41.336Z,6.33
2019-05-16T17:43:50.045Z,5.93
2019-05-16T17:48:57.654Z,5.38
2019-05-16T17:54:06.620Z,4.81
2019-05-16T17:59:12.668Z,5.55
2019-05-16T18:04:19.914Z,5.77
2019-05-16T18:09:28.025Z,6.04
2019-05-16T18:14:37.233Z,5.23
2019-05-16T18:19:42.062Z,5.94
2019-05-16T18:24:51.377Z,5.06
2019-05-16T18:29:58.716Z,5.97
2019-05-16T18:35:07.427Z,5.47
2019-05-16T18:40:16.564Z,5.19
2019-05-16T18:45:22.438Z,4.86
2019-05-16T18:50:29.621Z,5.74
2019-05-16T18:55:41.711Z,4.66
2019-05-16T19:00:38.727Z,5.07
2019-05-16T19:05:46.280Z,4.83
2019-05-16T19:10:59.534Z,4.72
2019-05-16T19:15:57.001Z,5.26
2019-05-16T19:21:03.176Z,5.15
2019-05-16T19:26:10.351Z,5.23
2019-05-16T19:31:17.882Z,5.38
2019-05-16T19:36:27.104Z,5.38
2019-05-16T19:41:33.341Z,5.36
2019-05-16T19:46:40.452Z,5.20
2019-05-16T19:51:49.070Z,5.27
2019-05-16T19:56:56.511Z,6.04
2019-05-16T20:02:02.436Z,5.63
2019-05-16T20:07:09.566Z,5.76
2019-05-16T20:12:17.044Z,6.14
2019-05-16T20:17:24.011Z,5.55
2019-05-16T20:22:31.074Z,5.77
2019-05-16T20:27:39.446Z,5.69
2019-05-16T20:32:46.647Z,5.81
2019-05-16T20:37:53.802Z,6.01
2019-05-16T20:43:01.091Z,5.87
2019-05-16T20:48:14.671Z,6.04
2019-05-16T20:53:17.407Z,5.95
2019-05-16T20:58:21.675Z,6.28
2019-05-16T21:03:29.168Z,6.06
2019-05-16T21:08:37.119Z,6.35
2019-05-16T21:13:43.692Z,6.14
2019-05-16T21:18:51.204Z,6.13
2019-05-16T21:23:58.498Z,6.06
2019-05-16T21:29:07.539Z,6.54
2019-05-16T21:34:12.699Z,6.64
2019-05-16T21:39:19.959Z,6.81
2019-05-16T21:44:28.989Z,6.70
2019-05-16T21:49:34.004Z,6.91
2019-05-16T21:54:41.040Z,7.02
2019-05-16T21:59:48.087Z,7.17
2019-05-16T22:04:56.854Z,7.42
2019-05-16T22:10:01.834Z,7.94
2019-05-16T22:15:08.908Z,7.69
2019-05-16T22:20:16.507Z,7.53
2019-05-16T22:25:22.540Z,7.46
2019-05-16T22:30:29.613Z,7.67
2019-05-16T22:35:37.575Z,7.45
2019-05-16T22:40:43.245Z,7.67
2019-05-16T22:45:50.327Z,7.37
2019-05-16T22:50:57.408Z,7.45
2019-05-16T22:56:04.494Z,7.34
2019-05-16T23:01:11.809Z,7.48
2019-05-16T23:06:18.955Z,7.71
2019-05-16T23:11:27.040Z,7.43
2019-05-16T23:16:32.576Z,7.67
2019-05-16T23:21:39.650Z,7.64
2019-05-16T23:26:47.067Z,7.71
2019-05-16T23:31:53.828Z,8.02
2019-05-16T23:37:00.922Z,8.40
2019-05-16T23:42:08.041Z,7.91
2019-05-16T23:47:16.471Z,8.38
2019-05-16T23:52:21.722Z,8.36
2019-05-16T23:57:28.821Z,8.54
